Terminal Aerodrome Forecast
Issued by NWS

Home | Current Version | Previous Version | Graphics & Text | Print | Product List | Glossary On
Versions: 1 2 3 4 5 6 7 8 9 10 11 12 13 14 15 16 17
000
FTUS43 KBIS 242049 AAA
TAFMOT
TAF AMD
KMOT 242049Z 2421/2518 28022G29KT P6SM VCSH OVC040
     FM250000 29019G28KT P6SM VCSH OVC025
     FM250500 31014G21KT P6SM OVC015
     FM251100 30009KT P6SM BKN035
     FM251300 30009KT P6SM SCT070=

USA.gov is the U.S. government's official web portal to all federal, state and local government web resources and services.